Time;durP1;ratioP1;P1;durP2;ratioP2;P2;SDS_P1;SDS_P2;PMS_P1;PMS_P2;Temp;Humidity;BMP_temperature;BMP_pressure;BME280_temperature;BME280_humidity;BME280_pressure;Samples;Min_cycle;Max_cycle;Signal;HPM_P1;HPM_P2
2021/04/20 00:01:40;;;;;;;39.92;25.02;;;6.00;90.20;;;;;;4984250;28;20452;-78
2021/04/20 00:04:06;;;;;;;41.38;23.90;;;6.00;90.10;;;;;;4980509;28;20042;-78
2021/04/20 00:06:32;;;;;;;37.72;25.52;;;5.80;90.20;;;;;;5000077;28;20034;-77
2021/04/20 00:08:57;;;;;;;38.42;22.95;;;5.70;90.80;;;;;;4989070;28;20034;-78
2021/04/20 00:11:23;;;;;;;35.22;24.60;;;5.80;90.90;;;;;;4982472;28;20049;-78
2021/04/20 00:13:48;;;;;;;34.97;23.20;;;5.90;90.70;;;;;;4988948;28;20041;-78
2021/04/20 00:16:14;;;;;;;25.50;17.10;;;5.80;90.60;;;;;;5005280;28;20085;-78
2021/04/20 00:18:39;;;;;;;25.50;17.20;;;5.90;90.10;;;;;;4973653;28;20084;-78
2021/04/20 00:21:05;;;;;;;27.70;18.05;;;5.90;89.80;;;;;;4995759;28;20121;-78
2021/04/20 00:23:30;;;;;;;31.30;18.20;;;5.90;89.40;;;;;;4983534;28;20101;-77
2021/04/20 00:25:56;;;;;;;30.42;19.90;;;5.80;90.00;;;;;;4989792;28;20045;-78
2021/04/20 00:28:26;;;;;;;28.23;19.05;;;5.60;90.20;;;;;;4988458;28;20117;-78
2021/04/20 00:30:51;;;;;;;30.38;19.88;;;5.60;90.10;;;;;;4993508;28;20042;-77
2021/04/20 00:33:18;;;;;;;31.25;19.38;;;5.60;90.30;;;;;;4983256;28;20031;-77
2021/04/20 00:35:43;;;;;;;23.95;16.65;;;5.60;90.60;;;;;;4989909;28;20038;-77
2021/04/20 00:38:09;;;;;;;29.08;18.08;;;5.60;90.20;;;;;;5007643;28;20030;-77
2021/04/20 00:40:34;;;;;;;21.08;15.55;;;5.60;90.00;;;;;;5009154;28;20029;-78
2021/04/20 00:43:00;;;;;;;25.15;16.15;;;5.60;89.90;;;;;;4975157;28;20030;-78
2021/04/20 00:45:30;;;;;;;20.42;15.07;;;5.70;90.00;;;;;;4988578;28;20072;-77
2021/04/20 00:47:56;;;;;;;18.85;13.32;;;5.70;89.90;;;;;;4969751;28;20398;-79
2021/04/20 00:50:24;;;;;;;24.48;16.38;;;5.80;89.80;;;;;;4987171;28;20034;-77
2021/04/20 00:52:50;;;;;;;25.10;16.15;;;5.70;88.70;;;;;;4989886;28;20430;-78
2021/04/20 00:55:15;;;;;;;28.13;19.73;;;5.70;89.30;;;;;;4991868;28;20030;-78
2021/04/20 00:57:41;;;;;;;30.45;17.77;;;5.50;89.20;;;;;;4974945;28;20025;-78
2021/04/20 01:00:09;;;;;;;30.23;19.65;;;5.40;89.60;;;;;;5006988;28;20245;-77
2021/04/20 01:02:35;;;;;;;21.15;15.25;;;5.30;89.70;;;;;;4991761;28;20107;-78
2021/04/20 01:05:01;;;;;;;23.38;14.52;;;5.30;90.00;;;;;;4992107;28;20113;-77
2021/04/20 01:07:26;;;;;;;25.08;15.68;;;5.30;89.70;;;;;;4972932;28;20014;-77
2021/04/20 01:09:52;;;;;;;25.77;18.08;;;5.40;90.10;;;;;;4992942;28;20368;-78
2021/04/20 01:12:17;;;;;;;27.15;17.25;;;5.50;89.30;;;;;;4974514;28;20038;-79
2021/04/20 01:14:43;;;;;;;28.98;18.73;;;5.30;89.20;;;;;;4974985;28;20034;-78
2021/04/20 01:17:08;;;;;;;27.23;17.80;;;5.20;89.50;;;;;;5001363;28;20030;-78
2021/04/20 01:19:34;;;;;;;28.80;18.58;;;5.10;89.80;;;;;;4978475;28;20069;-78
2021/04/20 01:21:59;;;;;;;29.60;19.23;;;5.00;90.00;;;;;;4968479;28;20052;-77
2021/04/20 01:24:28;;;;;;;30.92;20.42;;;4.90;90.20;;;;;;4972039;28;20494;-78
2021/04/20 01:26:54;;;;;;;33.95;20.45;;;4.90;90.20;;;;;;4985125;28;20173;-78
2021/04/20 01:29:21;;;;;;;33.22;19.90;;;4.90;90.20;;;;;;5005423;28;20137;-77
2021/04/20 01:31:46;;;;;;;27.13;18.63;;;4.70;90.40;;;;;;4973486;28;20037;-79
2021/04/20 01:34:12;;;;;;;27.75;17.65;;;4.60;90.80;;;;;;4989140;28;20037;-78
2021/04/20 01:36:38;;;;;;;27.38;17.60;;;4.50;90.90;;;;;;4975495;28;20482;-78
2021/04/20 01:39:08;;;;;;;26.85;17.55;;;4.40;91.30;;;;;;4967169;28;20041;-78
2021/04/20 01:41:33;;;;;;;26.65;16.05;;;4.50;91.30;;;;;;4990834;28;20033;-77
2021/04/20 01:43:59;;;;;;;27.48;16.25;;;4.40;91.40;;;;;;4982557;28;20045;-77
2021/04/20 01:46:25;;;;;;;26.70;15.60;;;4.40;91.00;;;;;;5005637;28;20341;-78
2021/04/20 01:48:50;;;;;;;22.13;15.85;;;4.40;91.00;;;;;;4993418;28;20121;-77
2021/04/20 01:51:17;;;;;;;22.35;16.30;;;4.40;90.90;;;;;;4985806;28;20038;-78
2021/04/20 01:53:42;;;;;;;23.67;15.88;;;4.40;91.00;;;;;;4983497;28;20038;-77
2021/04/20 01:56:09;;;;;;;21.30;14.35;;;4.50;90.90;;;;;;4984202;28;20045;-78
2021/04/20 01:58:38;;;;;;;21.45;14.30;;;4.50;90.40;;;;;;4987825;28;20129;-78
2021/04/20 02:01:12;;;;;;;20.58;13.95;;;4.70;90.30;;;;;;4986148;28;20452;-78
2021/04/20 02:03:38;;;;;;;16.58;11.63;;;4.60;90.00;;;;;;4987791;28;20120;-76
2021/04/20 02:06:05;;;;;;;17.63;12.15;;;4.60;90.10;;;;;;4986082;28;20117;-75
2021/04/20 02:08:31;;;;;;;16.92;12.77;;;4.70;89.60;;;;;;4983876;28;20558;-75
2021/04/20 02:10:57;;;;;;;21.50;14.05;;;4.80;90.40;;;;;;4986636;28;20113;-76
2021/04/20 02:13:22;;;;;;;19.60;12.48;;;4.70;89.80;;;;;;4988533;28;20034;-75
2021/04/20 02:15:48;;;;;;;19.17;13.10;;;4.80;90.30;;;;;;5000805;28;20057;-75
2021/04/20 02:18:13;;;;;;;24.67;14.18;;;4.70;90.10;;;;;;4984113;28;20085;-76
2021/04/20 02:20:39;;;;;;;18.10;13.10;;;4.60;89.70;;;;;;5007285;28;20026;-75
2021/04/20 02:23:05;;;;;;;25.58;15.73;;;4.60;90.50;;;;;;4984861;28;20334;-75
2021/04/20 02:25:30;;;;;;;24.55;16.27;;;4.50;90.00;;;;;;4986326;28;20399;-76
2021/04/20 02:27:56;;;;;;;30.38;17.88;;;4.30;90.30;;;;;;4988453;28;20034;-75
2021/04/20 02:30:22;;;;;;;25.55;17.27;;;4.10;90.70;;;;;;4987298;28;20096;-76
2021/04/20 02:32:47;;;;;;;29.73;17.42;;;4.00;90.80;;;;;;4972568;28;20092;-76
2021/04/20 02:35:14;;;;;;;30.33;18.02;;;4.00;90.80;;;;;;4975110;28;20065;-75
2021/04/20 02:37:40;;;;;;;27.17;16.52;;;3.90;91.20;;;;;;4970523;28;20036;-75
2021/04/20 02:40:07;;;;;;;23.58;16.10;;;3.60;91.20;;;;;;4988822;28;20444;-75
2021/04/20 02:42:34;;;;;;;20.48;13.90;;;3.60;92.10;;;;;;5005105;28;20116;-76
2021/04/20 02:45:00;;;;;;;24.17;15.07;;;3.70;92.00;;;;;;5005247;28;20968;-75
2021/04/20 02:47:27;;;;;;;27.02;15.90;;;3.70;91.80;;;;;;4998741;28;20037;-76
2021/04/20 02:49:53;;;;;;;23.48;14.60;;;3.70;92.10;;;;;;4997070;28;20030;-75
2021/04/20 02:52:18;;;;;;;25.08;15.32;;;3.80;91.60;;;;;;4972186;28;20394;-75
2021/04/20 02:54:44;;;;;;;23.88;15.63;;;3.90;91.30;;;;;;4987502;28;20034;-76
2021/04/20 02:57:10;;;;;;;21.85;14.48;;;3.90;91.20;;;;;;4964457;28;20091;-75
2021/04/20 02:59:36;;;;;;;26.13;15.40;;;3.70;92.10;;;;;;4989547;28;20033;-76
2021/04/20 03:02:02;;;;;;;16.27;12.18;;;3.80;91.40;;;;;;4977000;28;20437;-76
2021/04/20 03:04:28;;;;;;;20.25;13.38;;;3.90;90.80;;;;;;5004995;28;20029;-75
2021/04/20 03:06:53;;;;;;;25.63;15.10;;;4.00;90.70;;;;;;4980898;28;20105;-75
2021/04/20 03:09:19;;;;;;;19.92;13.43;;;3.90;90.50;;;;;;4999569;28;20044;-75
2021/04/20 03:11:55;;;;;;;23.15;14.55;;;3.90;90.70;;;;;;4973445;28;20065;-76
2021/04/20 03:14:20;;;;;;;22.40;14.48;;;3.90;90.90;;;;;;4979646;28;20059;-75
2021/04/20 03:16:46;;;;;;;19.27;12.55;;;3.90;90.50;;;;;;4988849;28;20413;-75
2021/04/20 03:19:11;;;;;;;26.38;14.65;;;3.90;90.30;;;;;;4987426;28;20030;-75
2021/04/20 03:21:37;;;;;;;26.80;15.57;;;3.90;90.40;;;;;;4971815;28;20129;-75
2021/04/20 03:24:03;;;;;;;25.42;15.52;;;3.80;90.60;;;;;;4974221;28;20043;-74
2021/04/20 03:26:34;;;;;;;26.15;16.58;;;3.70;90.60;;;;;;5002836;28;20046;-75
2021/04/20 03:29:01;;;;;;;26.73;17.38;;;3.60;91.00;;;;;;4997290;28;20037;-75
2021/04/20 03:31:27;;;;;;;25.85;16.73;;;3.70;91.10;;;;;;4999619;28;20393;-75
2021/04/20 03:33:59;;;;;;;28.00;16.70;;;3.70;91.10;;;;;;4989590;28;20037;-75
2021/04/20 03:36:46;;;;;;;25.00;16.55;;;3.70;91.10;;;;;;4982991;28;20355;-75
2021/04/20 03:39:21;;;;;;;27.38;15.30;;;3.60;91.20;;;;;;4996603;28;20720;-74
2021/04/20 03:42:02;;;;;;;23.48;15.10;;;3.50;91.50;;;;;;4979894;28;20070;-75
2021/04/20 03:44:38;;;;;;;26.73;15.07;;;3.40;91.90;;;;;;4981143;28;20446;-75
2021/04/20 03:47:11;;;;;;;25.65;16.02;;;3.50;91.60;;;;;;4980053;28;20054;-75
2021/04/20 03:49:37;;;;;;;27.50;15.98;;;3.60;91.40;;;;;;5003147;28;20068;-75
2021/04/20 03:52:05;;;;;;;23.65;15.45;;;3.60;91.40;;;;;;4970590;28;20065;-75
2021/04/20 03:54:31;;;;;;;25.67;15.73;;;3.60;91.40;;;;;;5007720;28;20034;-75
2021/04/20 03:56:58;;;;;;;22.60;14.90;;;3.60;91.30;;;;;;4993631;28;20587;-75
2021/04/20 03:59:24;;;;;;;24.80;16.48;;;3.70;91.10;;;;;;5002340;28;20508;-75
2021/04/20 04:01:50;;;;;;;24.55;15.38;;;3.60;91.20;;;;;;4986394;28;20029;-75
2021/04/20 04:04:21;;;;;;;25.95;15.30;;;3.60;90.90;;;;;;5001487;28;20349;-76
2021/04/20 04:06:47;;;;;;;24.77;14.43;;;3.60;90.80;;;;;;4978870;28;20539;-75
2021/04/20 04:09:12;;;;;;;22.20;15.00;;;3.50;90.70;;;;;;4972092;28;20121;-75
2021/04/20 04:11:54;;;;;;;23.38;14.80;;;3.50;90.90;;;;;;4990501;28;20059;-75
2021/04/20 04:14:22;;;;;;;20.75;13.65;;;3.50;90.70;;;;;;4997314;28;20030;-75
2021/04/20 04:16:47;;;;;;;20.40;13.20;;;3.50;90.70;;;;;;4986920;28;20041;-75
2021/04/20 04:19:13;;;;;;;20.80;14.00;;;3.50;90.70;;;;;;4975714;28;20040;-76
2021/04/20 04:21:43;;;;;;;23.38;14.50;;;3.50;90.70;;;;;;4990089;28;20096;-75
2021/04/20 04:24:10;;;;;;;20.73;13.63;;;3.40;90.60;;;;;;4986447;28;20057;-75
2021/04/20 04:26:36;;;;;;;23.63;14.15;;;3.40;90.60;;;;;;4975789;28;20037;-75
2021/04/20 04:29:03;;;;;;;25.40;16.65;;;3.30;90.60;;;;;;4977172;28;20036;-75
2021/04/20 04:31:29;;;;;;;27.42;16.55;;;3.20;91.30;;;;;;4989700;28;20149;-76
2021/04/20 04:33:55;;;;;;;27.23;16.67;;;3.20;91.50;;;;;;4983989;28;20034;-74
2021/04/20 04:36:20;;;;;;;24.13;16.35;;;3.20;91.40;;;;;;4987749;28;20108;-75
2021/04/20 04:38:46;;;;;;;26.48;15.05;;;3.20;91.10;;;;;;4978316;28;20295;-75
2021/04/20 04:41:12;;;;;;;24.92;15.48;;;3.30;90.90;;;;;;4982128;28;20030;-74
2021/04/20 04:43:39;;;;;;;29.33;17.38;;;3.20;91.00;;;;;;4992927;28;20370;-75
2021/04/20 04:46:04;;;;;;;26.65;15.48;;;3.20;91.50;;;;;;4991215;28;20036;-74
2021/04/20 04:48:30;;;;;;;23.90;15.75;;;3.20;91.30;;;;;;4993172;28;20038;-75
2021/04/20 04:50:55;;;;;;;27.98;17.00;;;3.20;91.50;;;;;;4975855;28;20034;-75
2021/04/20 04:53:21;;;;;;;26.35;15.93;;;3.10;91.50;;;;;;4975446;28;20062;-75
2021/04/20 04:55:47;;;;;;;29.38;18.75;;;3.10;92.00;;;;;;4978294;28;20241;-75
2021/04/20 04:58:13;;;;;;;33.13;17.98;;;3.10;92.20;;;;;;4998784;28;20510;-75
2021/04/20 05:00:38;;;;;;;31.90;18.38;;;3.20;92.40;;;;;;4991952;28;20028;-75
2021/04/20 05:03:05;;;;;;;27.38;17.73;;;3.30;91.80;;;;;;4986251;28;20037;-75
2021/04/20 05:05:31;;;;;;;29.40;19.08;;;3.30;91.50;;;;;;4992278;28;20034;-75
2021/04/20 05:07:59;;;;;;;42.58;25.40;;;3.30;91.80;;;;;;4973963;28;20038;-75
2021/04/20 05:10:25;;;;;;;29.42;18.52;;;3.40;92.50;;;;;;5002098;28;20760;-75
2021/04/20 05:12:51;;;;;;;32.17;18.10;;;3.30;92.80;;;;;;4976335;28;20038;-75
2021/04/20 05:15:17;;;;;;;29.88;19.05;;;3.30;93.00;;;;;;4985460;28;20509;-75
2021/04/20 05:17:43;;;;;;;28.23;18.10;;;3.30;92.60;;;;;;4990791;28;20211;-75
2021/04/20 05:20:13;;;;;;;30.73;17.30;;;3.50;93.10;;;;;;4989765;28;20129;-74
2021/04/20 05:22:39;;;;;;;34.28;18.42;;;3.50;92.50;;;;;;4989693;28;20026;-74
2021/04/20 05:25:12;;;;;;;31.70;18.85;;;3.60;92.30;;;;;;4987636;28;20549;-74
2021/04/20 05:27:37;;;;;;;28.35;16.92;;;3.60;92.60;;;;;;5010176;28;20061;-74
2021/04/20 05:30:04;;;;;;;36.30;19.33;;;3.70;93.00;;;;;;4972717;28;20077;-75
2021/04/20 05:32:31;;;;;;;35.25;19.13;;;3.80;92.60;;;;;;4992825;28;20585;-74
2021/04/20 05:35:00;;;;;;;37.70;18.00;;;3.90;92.60;;;;;;4977906;28;20040;-74
2021/04/20 05:37:39;;;;;;;34.35;19.00;;;4.00;92.90;;;;;;5001279;28;20120;-75
2021/04/20 05:40:12;;;;;;;35.00;18.83;;;4.10;92.60;;;;;;5002161;28;20040;-74
2021/04/20 05:42:38;;;;;;;35.03;19.05;;;4.30;92.30;;;;;;5003062;28;20029;-74
2021/04/20 05:45:07;;;;;;;25.83;15.18;;;4.40;92.10;;;;;;4974620;28;20045;-74
2021/04/20 05:47:33;;;;;;;36.50;18.90;;;4.50;91.70;;;;;;4987076;28;20036;-74
2021/04/20 05:49:59;;;;;;;35.70;19.67;;;4.60;91.90;;;;;;4980090;28;20490;-75
2021/04/20 05:52:25;;;;;;;38.85;20.58;;;4.70;92.30;;;;;;4982750;28;20294;-75
2021/04/20 05:54:55;;;;;;;41.15;20.77;;;4.80;92.30;;;;;;4997330;28;20485;-75
2021/04/20 05:57:21;;;;;;;45.58;21.58;;;4.90;91.90;;;;;;4992526;28;20053;-75
2021/04/20 05:59:46;;;;;;;42.15;21.48;;;5.00;92.20;;;;;;4985483;28;20025;-74
2021/04/20 06:02:15;;;;;;;40.22;22.00;;;5.10;92.20;;;;;;4978779;28;20039;-74
2021/04/20 06:04:45;;;;;;;44.05;22.77;;;5.20;92.40;;;;;;4974875;28;20090;-75
2021/04/20 06:07:12;;;;;;;61.97;26.83;;;5.40;92.30;;;;;;4976198;28;20026;-75
2021/04/20 06:09:38;;;;;;;60.22;26.23;;;5.50;91.90;;;;;;4974502;28;20035;-75
2021/04/20 06:12:03;;;;;;;68.00;28.40;;;5.60;92.20;;;;;;4983340;28;20046;-75
2021/04/20 06:14:29;;;;;;;59.35;27.77;;;5.70;92.60;;;;;;4977965;28;20048;-74
2021/04/20 06:16:54;;;;;;;72.10;32.60;;;5.90;93.00;;;;;;5005752;28;20113;-75
2021/04/20 06:19:20;;;;;;;78.03;32.38;;;6.10;93.00;;;;;;4965987;28;20043;-74
2021/04/20 06:21:47;;;;;;;59.08;26.10;;;6.20;93.10;;;;;;4990713;28;20025;-75
2021/04/20 06:24:12;;;;;;;46.28;23.33;;;6.30;91.60;;;;;;5003203;28;20053;-75
2021/04/20 06:26:41;;;;;;;52.28;24.20;;;6.50;91.60;;;;;;4985074;28;20037;-75
2021/04/20 06:29:06;;;;;;;76.40;33.65;;;6.50;91.40;;;;;;4991542;28;20037;-75
2021/04/20 06:31:33;;;;;;;63.53;27.63;;;6.60;91.90;;;;;;4977433;28;20038;-75
2021/04/20 06:33:59;;;;;;;39.53;20.48;;;6.70;92.00;;;;;;4991694;28;20037;-75
2021/04/20 06:36:25;;;;;;;60.67;28.60;;;6.90;91.10;;;;;;4969961;28;20268;-75
2021/04/20 06:38:50;;;;;;;41.25;23.88;;;7.00;91.10;;;;;;5011712;28;20042;-75
2021/04/20 06:41:16;;;;;;;45.53;24.77;;;7.20;90.50;;;;;;4982876;28;20088;-75
2021/04/20 06:43:48;;;;;;;41.50;21.15;;;7.40;90.60;;;;;;4984221;28;20040;-75
2021/04/20 06:46:18;;;;;;;60.35;30.33;;;7.50;90.50;;;;;;4983273;28;20027;-74
2021/04/20 06:48:49;;;;;;;56.33;29.17;;;7.70;90.20;;;;;;4979386;28;20038;-75
2021/04/20 06:51:44;;;;;;;33.47;19.67;;;7.80;90.10;;;;;;4997064;28;20271;-75
2021/04/20 06:54:31;;;;;;;69.22;31.83;;;8.00;89.10;;;;;;4991202;28;20538;-75
2021/04/20 06:57:13;;;;;;;47.22;27.00;;;8.10;90.60;;;;;;5002875;28;20386;-75
2021/04/20 06:59:48;;;;;;;49.40;25.15;;;8.30;90.00;;;;;;4983497;28;20179;-75
2021/04/20 07:02:32;;;;;;;53.50;28.75;;;8.50;89.30;;;;;;4984304;28;20038;-75
2021/04/20 07:04:58;;;;;;;55.67;30.90;;;8.70;90.90;;;;;;4995622;28;20362;-76
2021/04/20 07:07:46;;;;;;;54.78;31.80;;;8.70;91.40;;;;;;5003071;28;20019;-75
2021/04/20 07:10:34;;;;;;;38.08;24.25;;;8.90;91.10;;;;;;4970957;28;20099;-75
2021/04/20 07:13:00;;;;;;;26.73;16.83;;;9.00;90.90;;;;;;4982369;28;20034;-76
2021/04/20 07:15:27;;;;;;;35.45;21.77;;;9.30;88.70;;;;;;4986909;28;20041;-75
2021/04/20 07:18:30;;;;;;;24.67;15.98;;;9.60;88.70;;;;;;4975716;28;20421;-75
2021/04/20 07:21:14;;;;;;;24.10;16.50;;;9.70;88.70;;;;;;5005046;28;20026;-76
2021/04/20 07:24:11;;;;;;;22.77;15.35;;;9.90;90.40;;;;;;5004900;28;20044;-75
2021/04/20 07:27:05;;;;;;;28.40;18.08;;;10.00;89.90;;;;;;4991767;28;20417;-75
2021/04/20 07:29:53;;;;;;;26.02;18.52;;;10.20;90.10;;;;;;5002912;28;20375;-75
2021/04/20 07:32:33;;;;;;;17.73;11.60;;;10.30;90.30;;;;;;4983902;28;20061;-75
2021/04/20 07:35:15;;;;;;;27.80;19.17;;;10.70;86.10;;;;;;5001745;28;20045;-75
2021/04/20 07:37:58;;;;;;;27.20;16.70;;;10.70;89.30;;;;;;5005390;28;20513;-76
2021/04/20 07:40:47;;;;;;;26.52;16.42;;;11.00;88.40;;;;;;4982735;28;20388;-76
2021/04/20 07:43:45;;;;;;;24.48;16.40;;;11.10;90.10;;;;;;4969520;28;20517;-76
2021/04/20 07:46:18;;;;;;;28.92;18.42;;;11.20;90.20;;;;;;4990213;28;20117;-75
2021/04/20 07:48:49;;;;;;;28.38;18.33;;;11.40;89.80;;;;;;4973649;28;20056;-75
2021/04/20 07:51:41;;;;;;;22.48;14.95;;;11.60;90.80;;;;;;4997294;28;20034;-75
2021/04/20 07:54:19;;;;;;;21.55;15.65;;;11.70;90.00;;;;;;5000310;28;20026;-76
2021/04/20 07:56:55;;;;;;;22.85;15.30;;;11.90;90.40;;;;;;4989343;28;20140;-75
2021/04/20 07:59:23;;;;;;;;;;;12.10;91.20;;;;;;5003276;28;20030;-76
2021/04/20 08:01:52;;;;;;;25.52;14.60;;;12.20;92.00;;;;;;4989400;28;20393;-76
2021/04/20 08:04:46;;;;;;;21.77;14.80;;;12.40;91.70;;;;;;4996369;28;20030;-76
2021/04/20 08:07:23;;;;;;;20.17;14.23;;;12.60;91.60;;;;;;4977508;28;20125;-76
2021/04/20 08:09:49;;;;;;;19.30;13.88;;;12.80;91.90;;;;;;5001206;28;20026;-76
2021/04/20 08:12:18;;;;;;;17.38;12.73;;;13.00;91.20;;;;;;4993084;28;20057;-76
2021/04/20 08:14:55;;;;;;;18.40;11.23;;;13.10;91.80;;;;;;4987438;28;20104;-76
2021/04/20 08:17:29;;;;;;;20.92;14.02;;;13.50;89.00;;;;;;4986947;28;20465;-77
2021/04/20 08:19:58;;;;;;;18.65;12.65;;;13.50;91.20;;;;;;4996936;28;20030;-76
2021/04/20 08:22:23;;;;;;;17.98;13.25;;;13.60;91.10;;;;;;4981297;28;20461;-76
2021/04/20 08:24:54;;;;;;;15.63;11.80;;;13.70;90.70;;;;;;4972650;28;20030;-76
2021/04/20 08:27:36;;;;;;;13.27;10.48;;;13.80;91.80;;;;;;4994980;28;20160;-76
2021/04/20 08:30:15;;;;;;;18.25;13.07;;;14.00;90.60;;;;;;4977021;28;20045;-76
2021/04/20 08:32:41;;;;;;;19.95;14.30;;;14.20;90.70;;;;;;4980392;28;20099;-77
2021/04/20 08:35:19;;;;;;;18.90;13.13;;;14.30;91.40;;;;;;4976519;28;20117;-76
2021/04/20 08:38:07;;;;;;;19.42;11.93;;;14.50;91.20;;;;;;5008061;28;20049;-76
2021/04/20 08:41:07;;;;;;;18.40;12.93;;;14.90;87.80;;;;;;5007986;28;20058;-76
2021/04/20 08:44:04;;;;;;;16.35;11.40;;;14.90;91.00;;;;;;5005307;28;20030;-77
2021/04/20 08:47:17;;;;;;;16.70;12.07;;;15.40;84.80;;;;;;5012577;28;20030;-77
2021/04/20 08:49:48;;;;;;;20.52;14.35;;;15.80;84.20;;;;;;4973413;28;20039;-77
2021/04/20 08:52:28;;;;;;;25.02;14.63;;;15.80;87.60;;;;;;4946450;28;20042;-77
2021/04/20 08:55:10;;;;;;;20.75;13.90;;;15.60;89.00;;;;;;4992867;28;20112;-77
2021/04/20 08:57:55;;;;;;;18.45;13.43;;;15.60;90.50;;;;;;5004928;28;20044;-77
2021/04/20 09:00:24;;;;;;;21.08;13.85;;;15.80;86.00;;;;;;5002628;28;20505;-77
2021/04/20 09:03:14;;;;;;;20.90;15.07;;;16.80;82.10;;;;;;4994576;28;20436;-77
2021/04/20 09:06:04;;;;;;;17.52;11.18;;;16.50;88.10;;;;;;5018142;28;20038;-77
2021/04/20 09:08:35;;;;;;;19.70;14.23;;;17.10;81.60;;;;;;4974444;28;20060;-77
2021/04/20 09:11:09;;;;;;;22.75;15.18;;;17.30;83.20;;;;;;4985930;28;20064;-77
2021/04/20 09:14:08;;;;;;;17.77;13.10;;;17.10;84.60;;;;;;4991638;28;20093;-78
2021/04/20 09:16:46;;;;;;;17.65;13.45;;;17.80;77.70;;;;;;5005343;28;20030;-77
2021/04/20 09:19:28;;;;;;;18.50;13.93;;;18.10;77.90;;;;;;4994656;28;20026;-78
2021/04/20 09:22:36;;;;;;;18.75;14.02;;;18.10;83.40;;;;;;4986322;28;20030;-78
2021/04/20 09:25:10;;;;;;;17.92;13.00;;;17.60;85.40;;;;;;4984273;28;20026;-78
2021/04/20 09:27:43;;;;;;;14.30;11.73;;;18.90;77.40;;;;;;5003936;28;20103;-78
2021/04/20 09:30:13;;;;;;;21.42;14.85;;;18.90;77.20;;;;;;4987611;28;20486;-78
2021/04/20 09:32:49;;;;;;;18.50;14.68;;;18.20;84.00;;;;;;4992855;28;20481;-78
2021/04/20 09:35:15;;;;;;;18.58;15.18;;;18.00;86.20;;;;;;4990841;28;20034;-78
2021/04/20 09:37:41;;;;;;;16.10;11.55;;;18.00;86.50;;;;;;5007599;28;20049;-78
2021/04/20 09:40:07;;;;;;;17.13;12.68;;;18.50;82.10;;;;;;4972263;28;20035;-78
2021/04/20 09:42:34;;;;;;;21.13;15.10;;;18.70;82.30;;;;;;4980791;28;20358;-78
2021/04/20 09:45:05;;;;;;;15.95;10.70;;;18.60;83.30;;;;;;4986219;28;20038;-78
2021/04/20 09:47:43;;;;;;;17.67;12.60;;;18.50;82.40;;;;;;5007799;28;20418;-78
2021/04/20 09:50:31;;;;;;;17.10;13.75;;;18.70;80.40;;;;;;5000744;28;20505;-78
2021/04/20 09:53:29;;;;;;;16.65;13.35;;;19.50;81.00;;;;;;4984135;28;20070;-78
2021/04/20 09:56:04;;;;;;;17.98;14.38;;;19.30;82.00;;;;;;4998595;28;20053;-78
2021/04/20 09:58:31;;;;;;;20.70;14.35;;;19.00;83.80;;;;;;5006439;28;20088;-78
2021/04/20 10:01:01;;;;;;;18.42;14.63;;;19.20;81.60;;;;;;4976176;28;20516;-78
2021/04/20 10:03:44;;;;;;;18.08;13.90;;;19.10;80.40;;;;;;4983630;28;20490;-78
2021/04/20 10:06:36;;;;;;;17.58;13.98;;;19.10;78.80;;;;;;4993965;28;20041;-79
2021/04/20 10:09:19;;;;;;;19.38;14.63;;;19.30;81.30;;;;;;4976269;28;20051;-79
2021/04/20 10:11:58;;;;;;;19.33;15.13;;;20.30;77.90;;;;;;4967293;28;20048;-78
2021/04/20 10:15:00;;;;;;;17.77;14.30;;;19.70;78.00;;;;;;5001747;28;20061;-79
2021/04/20 10:17:55;;;;;;;15.40;12.27;;;19.70;76.00;;;;;;5005253;28;20026;-79
2021/04/20 10:20:34;;;;;;;17.00;13.52;;;20.10;75.00;;;;;;5002753;28;20404;-79
2021/04/20 10:23:18;;;;;;;23.38;15.20;;;20.20;77.30;;;;;;4989946;28;20037;-79
2021/04/20 10:25:50;;;;;;;17.45;14.55;;;20.00;73.70;;;;;;5003180;28;20061;-79
2021/04/20 10:28:34;;;;;;;19.00;15.10;;;20.00;74.40;;;;;;4968356;28;20035;-78
2021/04/20 10:31:01;;;;;;;18.17;13.85;;;20.10;74.00;;;;;;5001300;28;20127;-78
2021/04/20 10:33:27;;;;;;;18.27;14.32;;;20.10;71.80;;;;;;4970829;28;20113;-78
2021/04/20 10:35:56;;;;;;;19.10;14.90;;;20.20;72.60;;;;;;4981073;28;20498;-79
2021/04/20 10:38:27;;;;;;;13.98;11.52;;;20.40;74.60;;;;;;5002036;28;20034;-79
2021/04/20 10:40:54;;;;;;;17.42;12.05;;;21.70;70.70;;;;;;4987638;28;20446;-79
2021/04/20 10:43:22;;;;;;;14.93;12.60;;;22.10;71.70;;;;;;4988752;28;20367;-79
2021/04/20 10:45:47;;;;;;;17.45;14.35;;;21.90;71.90;;;;;;4975578;28;20030;-79
2021/04/20 10:48:15;;;;;;;18.60;13.10;;;21.90;71.80;;;;;;4992257;28;20033;-79
2021/04/20 10:50:41;;;;;;;19.05;15.05;;;21.70;72.80;;;;;;4985504;28;20034;-79
2021/04/20 10:53:12;;;;;;;18.15;14.48;;;21.50;66.10;;;;;;4989364;28;20036;-79
2021/04/20 10:55:40;;;;;;;19.45;15.18;;;21.30;69.20;;;;;;5001181;28;20036;-79
2021/04/20 10:58:07;;;;;;;20.95;15.68;;;21.30;70.70;;;;;;4985819;28;20167;-79
2021/04/20 11:00:33;;;;;;;19.52;14.02;;;21.30;67.70;;;;;;4986037;28;22161;-79
2021/04/20 11:02:59;;;;;;;17.55;12.52;;;21.50;68.70;;;;;;4993108;28;20026;-79
2021/04/20 11:05:27;;;;;;;15.27;10.20;;;22.40;69.20;;;;;;4982060;28;20387;-79
2021/04/20 11:07:53;;;;;;;12.02;9.10;;;23.80;58.50;;;;;;4979260;28;20037;-79
2021/04/20 11:10:19;;;;;;;14.70;10.48;;;24.30;59.80;;;;;;4983810;28;20034;-79
2021/04/20 11:12:46;;;;;;;12.25;10.18;;;25.10;59.40;;;;;;4993056;28;20040;-79
2021/04/20 11:15:25;;;;;;;14.68;11.85;;;24.20;57.40;;;;;;4976358;28;20026;-79
2021/04/20 11:17:57;;;;;;;13.80;11.13;;;23.90;65.90;;;;;;5001108;28;20401;-79
2021/04/20 11:20:27;;;;;;;11.00;9.52;;;23.70;67.30;;;;;;5006092;28;20057;-80
2021/04/20 11:23:08;;;;;;;12.90;9.35;;;23.70;64.50;;;;;;4997756;28;20088;-80
2021/04/20 11:25:55;;;;;;;15.23;12.40;;;24.40;63.50;;;;;;4999841;28;20132;-80
2021/04/20 11:28:29;;;;;;;17.10;13.77;;;24.80;61.90;;;;;;4991367;28;20085;-80
2021/04/20 11:31:02;;;;;;;17.65;15.45;;;24.70;64.70;;;;;;5001388;28;20050;-80
2021/04/20 11:33:33;;;;;;;14.10;11.70;;;24.70;63.30;;;;;;5003301;28;20321;-79
2021/04/20 11:36:00;;;;;;;17.65;14.38;;;24.70;62.30;;;;;;4989736;28;20521;-79
2021/04/20 11:38:26;;;;;;;16.45;13.00;;;24.80;61.30;;;;;;5004564;28;20092;-79
2021/04/20 11:40:57;;;;;;;14.68;11.02;;;24.70;61.70;;;;;;4986104;28;20025;-79
2021/04/20 11:43:26;;;;;;;15.60;13.02;;;24.80;58.00;;;;;;4978031;28;20030;-79
2021/04/20 11:45:51;;;;;;;17.67;13.48;;;24.70;61.50;;;;;;4997986;28;20030;-79
2021/04/20 11:48:19;;;;;;;17.55;13.35;;;24.50;59.80;;;;;;4979660;28;20501;-79
2021/04/20 11:50:58;;;;;;;17.67;12.40;;;24.40;58.00;;;;;;4991107;28;20497;-79
2021/04/20 11:53:25;;;;;;;13.75;10.98;;;24.50;59.20;;;;;;4965981;28;20034;-79
2021/04/20 11:55:56;;;;;;;12.18;9.18;;;24.60;59.60;;;;;;4982273;28;20047;-79
2021/04/20 11:58:28;;;;;;;18.80;13.18;;;25.30;55.90;;;;;;4983346;28;20422;-79
2021/04/20 12:00:58;;;;;;;16.08;13.38;;;25.10;55.20;;;;;;5009962;28;20026;-80
2021/04/20 12:03:24;;;;;;;17.35;14.05;;;25.00;54.40;;;;;;4996561;28;20406;-80
2021/04/20 12:05:53;;;;;;;19.33;13.98;;;25.10;55.20;;;;;;5002967;28;20022;-79
2021/04/20 12:08:32;;;;;;;14.43;11.55;;;25.00;55.10;;;;;;4974388;28;20035;-80
2021/04/20 12:10:58;;;;;;;13.95;10.98;;;25.20;54.50;;;;;;4998833;28;20165;-80
2021/04/20 12:13:25;;;;;;;13.57;10.70;;;25.10;54.80;;;;;;4985652;28;20118;-80
2021/04/20 12:15:56;;;;;;;17.42;13.70;;;25.10;54.80;;;;;;4991688;28;20116;-80
2021/04/20 12:18:22;;;;;;;13.07;11.57;;;25.20;55.50;;;;;;4992890;28;20022;-80
2021/04/20 12:20:48;;;;;;;13.60;11.07;;;25.20;54.60;;;;;;4986571;28;20027;-79
2021/04/20 12:23:14;;;;;;;10.25;9.13;;;25.30;54.20;;;;;;5004939;28;20038;-79
2021/04/20 12:25:40;;;;;;;12.18;10.27;;;25.40;55.20;;;;;;5007951;28;20029;-80
2021/04/20 12:28:07;;;;;;;16.95;11.45;;;25.50;54.90;;;;;;4974766;28;20038;-79
2021/04/20 12:30:33;;;;;;;14.38;11.95;;;25.50;54.20;;;;;;5005898;28;20030;-80
2021/04/20 12:32:58;;;;;;;11.93;10.52;;;25.60;53.80;;;;;;4977548;28;20402;-79
2021/04/20 12:35:30;;;;;;;11.95;9.35;;;25.60;54.20;;;;;;4991204;28;20033;-80
2021/04/20 12:37:59;;;;;;;13.70;10.40;;;25.80;52.60;;;;;;4992965;28;20034;-79
2021/04/20 12:40:25;;;;;;;14.15;10.23;;;25.90;53.30;;;;;;4973470;28;20373;-80
2021/04/20 12:42:54;;;;;;;11.52;10.32;;;25.90;52.70;;;;;;4985658;28;20034;-80
2021/04/20 12:45:20;;;;;;;12.82;9.43;;;26.20;52.90;;;;;;4976913;28;20031;-80
2021/04/20 12:47:46;;;;;;;12.90;10.32;;;26.30;53.90;;;;;;4990325;28;20037;-80
2021/04/20 12:50:13;;;;;;;9.85;8.30;;;26.40;52.70;;;;;;4966429;28;20119;-80
2021/04/20 12:52:41;;;;;;;13.73;10.85;;;26.50;50.90;;;;;;5008822;28;20045;-80